Time;durP1;ratioP1;P1;durP2;ratioP2;P2;SDS_P1;SDS_P2;PMS_P1;PMS_P2;Temp;Humidity;BMP_temperature;BMP_pressure;BME280_temperature;BME280_humidity;BME280_pressure;Samples;Min_cycle;Max_cycle;Signal;HPM_P1;HPM_P2
2022/11/23 00:02:18;;;;;;;47.63;21.07;;;1.80;99.90;;;;;;4968021;28;20205;-71
2022/11/23 00:04:45;;;;;;;45.07;19.53;;;1.90;99.90;;;;;;4967361;28;20693;-70
2022/11/23 00:07:12;;;;;;;41.67;19.53;;;1.90;99.90;;;;;;4967730;28;20573;-71
2022/11/23 00:09:39;;;;;;;45.07;19.80;;;1.90;99.90;;;;;;4967921;28;20616;-70
2022/11/23 00:12:06;;;;;;;42.80;20.10;;;1.90;99.90;;;;;;4969919;28;20227;-70
2022/11/23 00:14:35;;;;;;;46.40;20.60;;;1.90;99.90;;;;;;4973710;28;20447;-72
2022/11/23 00:17:02;;;;;;;43.90;20.30;;;1.90;99.90;;;;;;4974416;28;20209;-71
2022/11/23 00:19:29;;;;;;;42.07;19.37;;;1.90;99.90;;;;;;4972605;28;20688;-71
2022/11/23 00:21:55;;;;;;;43.27;19.67;;;1.90;99.90;;;;;;4971823;28;20603;-72
2022/11/23 00:24:22;;;;;;;44.67;20.97;;;1.90;99.90;;;;;;4972221;28;20688;-70
2022/11/23 00:26:49;;;;;;;43.50;20.83;;;1.90;99.90;;;;;;4974120;28;20208;-69
2022/11/23 00:29:16;;;;;;;44.70;19.60;;;1.90;99.90;;;;;;4974544;28;20204;-71
2022/11/23 00:31:44;;;;;;;48.13;19.23;;;1.90;99.90;;;;;;4973779;28;20212;-71
2022/11/23 00:34:10;;;;;;;44.80;19.90;;;1.90;99.90;;;;;;4974305;28;20728;-70
2022/11/23 00:36:37;;;;;;;40.57;18.90;;;1.90;99.90;;;;;;4972877;28;20251;-71
2022/11/23 00:39:04;;;;;;;44.03;19.77;;;2.00;99.90;;;;;;4971123;28;20208;-71
2022/11/23 00:41:31;;;;;;;40.00;19.17;;;2.00;99.90;;;;;;4973061;28;20209;-71
2022/11/23 00:43:57;;;;;;;42.73;18.70;;;2.00;99.90;;;;;;4972942;28;20237;-70
2022/11/23 00:46:25;;;;;;;47.30;19.83;;;2.00;99.90;;;;;;4963638;28;20228;-71
2022/11/23 00:48:55;;;;;;;40.13;18.10;;;2.00;99.90;;;;;;4973249;28;20227;-70
2022/11/23 00:51:24;;;;;;;41.57;19.10;;;2.00;99.90;;;;;;4972558;28;20716;-71
2022/11/23 00:53:51;;;;;;;38.33;18.50;;;1.90;99.90;;;;;;4973024;28;20205;-70
2022/11/23 00:56:19;;;;;;;45.37;19.03;;;1.90;99.90;;;;;;4971230;28;20295;-71
2022/11/23 00:58:48;;;;;;;46.37;20.30;;;1.90;99.90;;;;;;4973374;28;20214;-70
2022/11/23 01:01:16;;;;;;;41.13;20.13;;;1.90;99.90;;;;;;4971907;28;20233;-71
2022/11/23 01:03:46;;;;;;;39.23;17.80;;;2.30;99.90;;;;;;4973045;28;20209;-71
2022/11/23 01:06:16;;;;;;;40.17;19.37;;;1.90;99.90;;;;;;4973060;28;20201;-71
2022/11/23 01:08:43;;;;;;;42.57;18.73;;;1.90;99.90;;;;;;4971262;28;20236;-70
2022/11/23 01:11:12;;;;;;;39.47;18.90;;;1.90;99.90;;;;;;4973516;28;20582;-71
2022/11/23 01:13:40;;;;;;;42.53;19.23;;;1.90;99.90;;;;;;4971223;28;20213;-71
2022/11/23 01:16:11;;;;;;;39.63;18.70;;;1.90;99.90;;;;;;4972208;28;20221;-71
2022/11/23 01:18:38;;;;;;;43.57;20.53;;;1.90;99.90;;;;;;4973023;28;20224;-71
2022/11/23 01:21:05;;;;;;;42.03;19.77;;;1.90;99.90;;;;;;4972276;28;20687;-71
2022/11/23 01:23:33;;;;;;;39.00;19.43;;;1.90;99.90;;;;;;4972269;28;20564;-70
2022/11/23 01:26:05;;;;;;;39.00;18.10;;;1.90;99.90;;;;;;4971463;28;20231;-70
2022/11/23 01:28:32;;;;;;;45.87;18.83;;;1.90;99.90;;;;;;4972410;28;20260;-70
2022/11/23 01:31:04;;;;;;;42.27;19.60;;;1.90;99.90;;;;;;4970737;28;20836;-70
2022/11/23 01:33:31;;;;;;;40.93;19.10;;;1.90;99.90;;;;;;4971964;28;20205;-70
2022/11/23 01:35:58;;;;;;;36.80;19.17;;;1.90;99.90;;;;;;4971475;28;20577;-71
2022/11/23 01:38:25;;;;;;;35.83;16.57;;;1.90;99.90;;;;;;4970879;28;20205;-71
2022/11/23 01:40:53;;;;;;;41.33;18.47;;;1.90;99.90;;;;;;4972214;28;20219;-71
2022/11/23 01:43:20;;;;;;;37.37;17.97;;;2.00;99.90;;;;;;4972589;28;20221;-71
2022/11/23 01:45:57;;;;;;;42.93;19.63;;;2.00;99.90;;;;;;4970210;28;20213;-71
2022/11/23 01:48:27;;;;;;;38.57;18.27;;;2.00;99.90;;;;;;4973457;28;20211;-71
2022/11/23 01:50:54;;;;;;;40.90;17.97;;;2.00;99.90;;;;;;4972363;28;20736;-71
2022/11/23 01:53:21;;;;;;;39.73;16.93;;;2.00;99.90;;;;;;4972469;28;20209;-71
2022/11/23 01:55:49;;;;;;;40.93;18.03;;;2.00;99.90;;;;;;4971117;28;20235;-69
2022/11/23 01:58:19;;;;;;;41.87;19.90;;;1.90;99.90;;;;;;4971484;28;20216;-71
2022/11/23 02:00:46;;;;;;;35.70;17.60;;;1.90;99.90;;;;;;4964994;28;20229;-70
2022/11/23 02:03:13;;;;;;;37.23;18.43;;;1.90;99.90;;;;;;4969988;28;20205;-70
2022/11/23 02:05:45;;;;;;;34.47;17.93;;;1.90;99.90;;;;;;4976283;28;20203;-71
2022/11/23 02:08:12;;;;;;;41.07;18.80;;;2.00;99.90;;;;;;4996519;28;20284;-71
2022/11/23 02:10:39;;;;;;;34.47;16.83;;;1.90;99.90;;;;;;4997455;28;20188;-72
2022/11/23 02:13:08;;;;;;;37.07;18.30;;;1.90;99.90;;;;;;4996831;28;20193;-72
2022/11/23 02:15:36;;;;;;;38.03;17.60;;;1.90;99.90;;;;;;4996516;28;20228;-72
2022/11/23 02:18:07;;;;;;;36.93;18.20;;;1.90;99.90;;;;;;4997346;28;20228;-71
2022/11/23 02:20:33;;;;;;;38.90;16.80;;;2.00;99.90;;;;;;4997508;28;20745;-71
2022/11/23 02:23:14;;;;;;;31.10;15.70;;;2.00;99.90;;;;;;4997327;28;20208;-71
2022/11/23 02:25:54;;;;;;;35.00;17.37;;;2.00;99.90;;;;;;4996262;28;20260;-71
2022/11/23 02:28:25;;;;;;;36.83;16.37;;;1.90;99.90;;;;;;4993572;28;20207;-72
2022/11/23 02:30:54;;;;;;;39.93;16.87;;;1.90;99.90;;;;;;4991109;28;20252;-71
2022/11/23 02:33:21;;;;;;;40.40;17.60;;;1.90;99.90;;;;;;4997355;28;20219;-72
2022/11/23 02:35:50;;;;;;;36.30;16.83;;;1.90;99.90;;;;;;4992580;28;20285;-71
2022/11/23 02:38:18;;;;;;;33.60;15.77;;;1.90;99.90;;;;;;4995880;28;20193;-71
2022/11/23 02:40:45;;;;;;;34.73;15.73;;;1.80;99.90;;;;;;4990077;28;20216;-72
2022/11/23 02:43:13;;;;;;;35.97;16.47;;;1.80;99.90;;;;;;4996694;28;20195;-71
2022/11/23 02:45:46;;;;;;;36.90;17.10;;;1.80;99.90;;;;;;5021283;23;20233;-71
2022/11/23 02:48:13;;;;;;;37.63;18.03;;;1.80;99.90;;;;;;5043960;28;20206;-71
2022/11/23 02:50:39;;;;;;;36.20;17.73;;;1.80;99.90;;;;;;5049235;28;20186;-71
2022/11/23 02:53:06;;;;;;;37.80;16.87;;;1.70;99.90;;;;;;5045157;28;20186;-73
2022/11/23 02:55:33;;;;;;;36.53;17.43;;;1.70;99.90;;;;;;5037205;28;20462;-72
2022/11/23 02:58:00;;;;;;;40.70;17.87;;;1.80;99.90;;;;;;5051189;28;20183;-71
2022/11/23 03:00:28;;;;;;;42.60;18.57;;;1.80;99.90;;;;;;5026556;28;20220;-72
2022/11/23 03:02:55;;;;;;;39.57;17.83;;;1.80;99.90;;;;;;5021369;28;20206;-71
2022/11/23 03:05:22;;;;;;;40.00;17.77;;;1.80;99.90;;;;;;5025322;28;20184;-71
2022/11/23 03:07:49;;;;;;;33.17;16.03;;;1.80;99.90;;;;;;5033051;28;20241;-71
2022/11/23 03:10:16;;;;;;;40.73;16.17;;;1.80;99.90;;;;;;5033829;28;20200;-71
2022/11/23 03:12:42;;;;;;;36.50;17.07;;;1.80;99.90;;;;;;5031108;28;20184;-72
2022/11/23 03:15:10;;;;;;;39.50;17.43;;;1.80;99.90;;;;;;5034160;28;20215;-71
2022/11/23 03:17:38;;;;;;;36.33;16.80;;;1.80;99.90;;;;;;5027329;28;20180;-71
2022/11/23 03:20:05;;;;;;;38.87;17.37;;;1.80;99.90;;;;;;5022049;28;20211;-71
2022/11/23 03:22:33;;;;;;;41.07;17.70;;;1.80;99.90;;;;;;5034828;28;20190;-72
2022/11/23 03:25:00;;;;;;;39.37;18.33;;;1.80;99.90;;;;;;5024333;28;20210;-70
2022/11/23 03:27:28;;;;;;;38.70;17.07;;;1.80;99.90;;;;;;5021203;28;20195;-70
2022/11/23 03:29:54;;;;;;;40.17;16.73;;;1.90;99.90;;;;;;5025447;28;20315;-70
2022/11/23 03:32:21;;;;;;;36.50;17.50;;;1.80;99.90;;;;;;5032483;28;20259;-72
2022/11/23 03:34:49;;;;;;;40.20;18.67;;;1.80;99.90;;;;;;5029867;28;20199;-71
2022/11/23 03:37:16;;;;;;;42.70;19.17;;;1.80;99.90;;;;;;5030271;28;20187;-71
2022/11/23 03:39:43;;;;;;;32.60;16.43;;;1.70;99.90;;;;;;5032268;28;20218;-72
2022/11/23 03:42:09;;;;;;;38.10;18.00;;;1.70;99.90;;;;;;5016775;28;20200;-71
2022/11/23 03:44:36;;;;;;;36.40;17.00;;;1.70;99.90;;;;;;5023262;28;20205;-71
2022/11/23 03:47:03;;;;;;;37.30;18.37;;;1.80;99.90;;;;;;5016500;28;20224;-72
2022/11/23 03:49:30;;;;;;;36.23;15.90;;;1.80;99.90;;;;;;5026784;28;20204;-71
2022/11/23 03:51:58;;;;;;;38.43;18.23;;;1.70;99.90;;;;;;5033927;28;20199;-72
2022/11/23 03:54:24;;;;;;;39.47;17.10;;;1.80;99.90;;;;;;5029442;28;20210;-71
2022/11/23 03:56:51;;;;;;;37.57;16.93;;;1.80;99.90;;;;;;5034414;28;20211;-70
2022/11/23 03:59:18;;;;;;;38.27;18.40;;;1.80;99.90;;;;;;5020926;28;20226;-71
2022/11/23 04:01:45;;;;;;;36.90;17.47;;;1.70;99.90;;;;;;5028492;28;20187;-71
2022/11/23 04:04:11;;;;;;;37.93;18.87;;;1.70;99.90;;;;;;5029416;28;20191;-72
2022/11/23 04:06:38;;;;;;;35.73;17.00;;;1.70;99.90;;;;;;5033759;28;20203;-73
2022/11/23 04:09:06;;;;;;;41.07;18.50;;;1.70;99.90;;;;;;5035207;28;20213;-72
2022/11/23 04:11:33;;;;;;;32.47;15.63;;;1.70;99.90;;;;;;5030976;28;20226;-71
2022/11/23 04:14:00;;;;;;;42.23;17.83;;;1.70;99.90;;;;;;5032286;28;20199;-71
2022/11/23 04:16:26;;;;;;;34.03;16.47;;;1.70;99.90;;;;;;5030657;28;20211;-73
2022/11/23 04:18:53;;;;;;;38.50;17.93;;;1.70;99.90;;;;;;5033217;28;20199;-72
2022/11/23 04:21:20;;;;;;;38.23;15.80;;;1.80;99.90;;;;;;5029790;28;20202;-72
2022/11/23 04:23:47;;;;;;;32.70;15.00;;;1.80;99.90;;;;;;5032712;28;20203;-71
2022/11/23 04:26:15;;;;;;;37.43;16.77;;;1.80;99.90;;;;;;5027315;28;20226;-72
2022/11/23 04:28:42;;;;;;;32.13;15.50;;;1.80;99.90;;;;;;5027703;28;20193;-72
2022/11/23 04:31:08;;;;;;;34.57;15.10;;;1.80;99.90;;;;;;5026360;28;20217;-71
2022/11/23 04:33:35;;;;;;;34.43;15.83;;;1.80;99.90;;;;;;5028070;28;20195;-72
2022/11/23 04:36:02;;;;;;;31.60;15.50;;;1.70;99.90;;;;;;5030303;28;20232;-71
2022/11/23 04:38:29;;;;;;;31.40;15.63;;;1.80;99.90;;;;;;5027622;28;21208;-72
2022/11/23 04:40:55;;;;;;;33.43;15.23;;;1.80;99.90;;;;;;5030141;28;20208;-72
2022/11/23 04:43:24;;;;;;;29.13;15.03;;;1.80;99.90;;;;;;5015694;28;20196;-72
2022/11/23 04:45:50;;;;;;;37.37;15.70;;;1.70;99.90;;;;;;5029984;28;20223;-71
2022/11/23 04:48:17;;;;;;;32.90;13.30;;;1.70;99.90;;;;;;5033994;28;20188;-72
2022/11/23 04:50:44;;;;;;;28.73;13.70;;;1.80;99.90;;;;;;5023525;28;20183;-72
2022/11/23 04:53:11;;;;;;;27.50;14.40;;;1.70;99.90;;;;;;5027409;28;20186;-71
2022/11/23 04:55:37;;;;;;;28.43;13.50;;;1.70;99.90;;;;;;5030116;28;20226;-71
2022/11/23 04:58:04;;;;;;;24.50;13.17;;;1.60;99.90;;;;;;5022801;28;20191;-72
2022/11/23 05:00:32;;;;;;;28.80;14.40;;;1.60;99.90;;;;;;5030595;28;20275;-73
2022/11/23 05:03:00;;;;;;;29.73;14.07;;;1.60;99.90;;;;;;5035952;28;20191;-72
2022/11/23 05:05:27;;;;;;;28.30;14.20;;;1.60;99.90;;;;;;5026786;28;20288;-73
2022/11/23 05:07:54;;;;;;;28.70;13.27;;;1.60;99.90;;;;;;5030179;28;20195;-71
2022/11/23 05:10:21;;;;;;;27.00;12.27;;;1.60;99.90;;;;;;5035249;28;20216;-72
2022/11/23 05:12:47;;;;;;;26.80;12.03;;;1.50;99.90;;;;;;5020810;28;20260;-71
2022/11/23 05:15:14;;;;;;;25.37;12.83;;;1.50;99.90;;;;;;5026938;28;20211;-72
2022/11/23 05:17:42;;;;;;;29.43;13.17;;;1.60;99.90;;;;;;5037601;28;20187;-72
2022/11/23 05:20:11;;;;;;;25.80;11.60;;;1.50;99.90;;;;;;5032275;28;20189;-71
2022/11/23 05:22:37;;;;;;;23.17;12.63;;;1.50;99.90;;;;;;5090485;23;20231;-71
2022/11/23 05:25:05;;;;;;;23.77;12.63;;;1.50;99.90;;;;;;5014554;28;20191;-71
2022/11/23 05:27:32;;;;;;;23.60;11.90;;;1.50;99.90;;;;;;5016286;28;20242;-72
2022/11/23 05:29:59;;;;;;;22.43;11.60;;;1.40;99.90;;;;;;5015522;28;20194;-72
2022/11/23 05:32:25;;;;;;;25.53;11.83;;;1.40;99.90;;;;;;5018386;28;20215;-72
2022/11/23 05:34:54;;;;;;;22.87;11.30;;;1.30;99.90;;;;;;5015782;28;20210;-72
2022/11/23 05:37:20;;;;;;;23.97;10.77;;;1.30;99.90;;;;;;5017197;28;20211;-71
2022/11/23 05:39:47;;;;;;;21.10;11.10;;;1.30;99.90;;;;;;5016167;28;20196;-72
2022/11/23 05:42:14;;;;;;;17.80;9.80;;;1.30;99.90;;;;;;5017835;28;20208;-71
2022/11/23 05:44:41;;;;;;;21.17;11.33;;;1.30;99.90;;;;;;5015033;28;20195;-72
2022/11/23 05:47:08;;;;;;;21.30;10.27;;;1.30;99.90;;;;;;5016415;28;20188;-72
2022/11/23 05:49:34;;;;;;;20.63;10.93;;;1.30;99.90;;;;;;5011520;28;20192;-72
2022/11/23 05:52:03;;;;;;;19.70;11.33;;;1.20;99.90;;;;;;5008898;28;20213;-75
2022/11/23 05:54:30;;;;;;;18.20;9.63;;;1.20;99.90;;;;;;4998730;28;20223;-74
2022/11/23 05:56:56;;;;;;;20.73;10.87;;;1.20;99.90;;;;;;4999820;28;20239;-77
2022/11/23 05:59:23;;;;;;;20.97;11.10;;;1.20;99.90;;;;;;4994033;28;20228;-77
2022/11/23 06:01:50;;;;;;;18.17;10.50;;;1.30;99.90;;;;;;4994498;28;20211;-77
2022/11/23 06:04:17;;;;;;;19.07;9.23;;;1.30;99.90;;;;;;4992453;28;20634;-78
2022/11/23 06:06:44;;;;;;;21.77;10.90;;;1.30;99.90;;;;;;5006439;28;20212;-70
2022/11/23 06:09:12;;;;;;;20.60;9.90;;;1.30;99.90;;;;;;4988790;28;20582;-72
2022/11/23 06:11:39;;;;;;;23.20;10.50;;;1.30;99.90;;;;;;4992019;28;20215;-70
2022/11/23 06:14:06;;;;;;;16.50;9.13;;;1.20;99.90;;;;;;4982777;28;20215;-74
2022/11/23 06:16:32;;;;;;;17.27;9.30;;;1.30;99.90;;;;;;4997051;28;20243;-74
2022/11/23 06:18:59;;;;;;;19.03;10.50;;;1.20;99.90;;;;;;4995784;28;20635;-72
2022/11/23 06:21:26;;;;;;;15.90;8.80;;;1.30;99.90;;;;;;4986136;28;20241;-72
2022/11/23 06:23:53;;;;;;;18.60;9.77;;;1.30;99.90;;;;;;4988357;28;20219;-69
2022/11/23 06:26:21;;;;;;;19.27;9.37;;;1.20;99.90;;;;;;4991101;28;20211;-71
2022/11/23 06:28:48;;;;;;;19.90;10.70;;;1.20;99.90;;;;;;4991968;28;20571;-69
2022/11/23 06:31:15;;;;;;;17.60;9.33;;;1.20;99.90;;;;;;4987279;28;20295;-69
2022/11/23 06:33:41;;;;;;;16.47;9.53;;;1.10;99.90;;;;;;4989803;28;20204;-70
2022/11/23 06:36:11;;;;;;;17.53;9.77;;;1.10;99.90;;;;;;4988577;28;20219;-73
2022/11/23 06:38:38;;;;;;;21.60;10.87;;;1.10;99.90;;;;;;4995765;28;20216;-72
2022/11/23 06:41:05;;;;;;;20.13;10.60;;;1.10;99.90;;;;;;4999619;28;20218;-75
2022/11/23 06:43:33;;;;;;;18.03;10.13;;;1.10;99.90;;;;;;4998352;28;20215;-75
2022/11/23 06:46:03;;;;;;;19.53;9.53;;;1.20;99.90;;;;;;4998495;28;20208;-73
2022/11/23 06:48:30;;;;;;;19.53;9.90;;;1.20;99.90;;;;;;4989009;28;20204;-71
2022/11/23 06:50:58;;;;;;;19.73;10.13;;;1.20;99.90;;;;;;4999360;28;20213;-71
2022/11/23 06:53:25;;;;;;;19.27;10.60;;;1.20;99.90;;;;;;5012400;28;20192;-72
2022/11/23 06:55:52;;;;;;;19.67;10.83;;;1.20;99.90;;;;;;5014242;28;20238;-72
2022/11/23 06:58:19;;;;;;;19.57;10.17;;;1.10;99.90;;;;;;5001392;28;20212;-72
2022/11/23 07:00:47;;;;;;;19.70;10.57;;;1.20;99.90;;;;;;5013988;28;20212;-71
2022/11/23 07:03:19;;;;;;;22.20;10.63;;;1.20;99.90;;;;;;5002819;28;20258;-71
2022/11/23 07:05:46;;;;;;;20.43;10.87;;;1.20;99.90;;;;;;5006299;28;20207;-72
2022/11/23 07:08:13;;;;;;;19.40;10.47;;;1.20;99.90;;;;;;5007125;28;20219;-72
2022/11/23 07:10:40;;;;;;;19.13;10.47;;;1.20;99.90;;;;;;5002601;28;20203;-72
2022/11/23 07:13:08;;;;;;;22.10;10.67;;;1.20;99.90;;;;;;5006200;28;20444;-77
2022/11/23 07:15:36;;;;;;;19.80;10.10;;;1.20;99.90;;;;;;5004948;28;20212;-70
2022/11/23 07:18:05;;;;;;;17.13;9.70;;;1.20;99.90;;;;;;5000960;28;20275;-74
2022/11/23 07:20:32;;;;;;;18.03;9.90;;;1.10;99.90;;;;;;5031030;23;20222;-75
2022/11/23 07:23:00;;;;;;;18.43;9.83;;;1.10;99.90;;;;;;5215766;23;20231;-75
2022/11/23 07:25:27;;;;;;;20.67;10.30;;;1.10;99.90;;;;;;5013023;28;20195;-73
2022/11/23 07:27:56;;;;;;;18.97;10.00;;;1.10;99.90;;;;;;5006570;28;20219;-75
2022/11/23 07:30:23;;;;;;;20.63;10.50;;;1.10;99.90;;;;;;5007741;28;20200;-76
2022/11/23 07:32:50;;;;;;;20.63;10.57;;;1.10;99.90;;;;;;5002195;28;20234;-78
2022/11/23 07:35:19;;;;;;;18.93;10.20;;;1.10;99.90;;;;;;4995290;28;20204;-80
2022/11/23 07:37:48;;;;;;;22.00;10.37;;;1.10;99.90;;;;;;4990361;28;20381;-79
2022/11/23 07:40:15;;;;;;;20.63;11.03;;;1.10;99.90;;;;;;4987093;28;20208;-77
2022/11/23 07:42:42;;;;;;;17.90;10.17;;;1.10;99.90;;;;;;5002237;28;20200;-72
2022/11/23 07:45:10;;;;;;;17.60;10.00;;;1.10;99.90;;;;;;5006423;28;20236;-69
2022/11/23 07:47:37;;;;;;;21.17;11.17;;;1.10;99.90;;;;;;5003233;28;20212;-70
2022/11/23 07:50:05;;;;;;;23.50;11.57;;;1.20;99.90;;;;;;5007765;28;20207;-71
2022/11/23 07:52:34;;;;;;;18.87;10.47;;;1.20;99.90;;;;;;5000201;28;20260;-71
2022/11/23 07:55:01;;;;;;;16.50;8.80;;;1.20;99.90;;;;;;5001292;28;20204;-75
2022/11/23 07:57:28;;;;;;;16.07;8.40;;;1.20;99.90;;;;;;4993098;28;20228;-81
2022/11/23 07:59:55;;;;;;;16.40;9.17;;;1.10;99.90;;;;;;4987792;28;20243;-79
2022/11/23 08:02:22;;;;;;;13.73;8.13;;;1.20;99.90;;;;;;4992176;28;20200;-72
2022/11/23 08:04:49;;;;;;;16.97;9.77;;;1.20;99.90;;;;;;4995808;28;20208;-76
2022/11/23 08:07:16;;;;;;;15.07;8.97;;;1.20;99.90;;;;;;4994909;28;20342;-73
2022/11/23 08:09:44;;;;;;;17.63;9.73;;;1.20;99.90;;;;;;4993557;28;20489;-73
2022/11/23 08:12:10;;;;;;;21.55;11.48;;;1.10;99.90;;;;;;4984867;28;20480;-74
2022/11/23 08:14:37;;;;;;;17.00;10.30;;;1.10;99.90;;;;;;4989102;28;20215;-73
2022/11/23 08:17:04;;;;;;;18.57;9.67;;;1.20;99.90;;;;;;4999749;28;20295;-75
2022/11/23 08:19:31;;;;;;;22.20;11.37;;;1.20;99.90;;;;;;4997970;28;20223;-76
2022/11/23 08:21:58;;;;;;;21.07;11.90;;;1.20;99.90;;;;;;4992596;28;20244;-74
2022/11/23 08:24:25;;;;;;;24.90;12.37;;;1.20;99.90;;;;;;4981553;28;20581;-70
2022/11/23 08:26:54;;;;;;;20.67;11.87;;;1.20;99.90;;;;;;4986945;28;20577;-70
2022/11/23 08:29:20;;;;;;;24.87;12.70;;;1.20;99.90;;;;;;4992701;28;20204;-73
2022/11/23 08:31:47;;;;;;;24.47;11.97;;;1.20;99.90;;;;;;4987317;28;20211;-73
2022/11/23 08:34:14;;;;;;;17.97;10.43;;;1.20;99.90;;;;;;4994206;28;20235;-72
2022/11/23 08:36:41;;;;;;;17.63;10.13;;;1.20;99.90;;;;;;4991768;28;20300;-75
2022/11/23 08:39:09;;;;;;;19.87;11.20;;;1.20;99.90;;;;;;4992760;28;20216;-78
2022/11/23 08:41:36;;;;;;;26.60;15.98;;;1.30;99.90;;;;;;5004029;28;20440;-77
2022/11/23 08:44:07;;;;;;;22.23;13.00;;;1.20;99.90;;;;;;5041264;23;20240;-76
2022/11/23 08:46:33;;;;;;;19.87;12.23;;;0.80;99.90;;;;;;5103084;23;20227;-70
2022/11/23 08:49:00;;;;;;;19.60;10.90;;;1.20;99.90;;;;;;4994679;28;20208;-73
2022/11/23 08:51:27;;;;;;;18.27;11.07;;;1.20;99.90;;;;;;4994326;28;20231;-71
2022/11/23 08:53:54;;;;;;;22.37;11.60;;;1.20;99.90;;;;;;4992703;28;20213;-78
2022/11/23 08:56:21;;;;;;;21.63;11.33;;;1.20;99.90;;;;;;4997307;28;20208;-78
2022/11/23 08:58:47;;;;;;;19.67;10.90;;;1.20;99.90;;;;;;4996255;28;20212;-77
2022/11/23 09:01:17;;;;;;;18.33;9.57;;;1.10;99.90;;;;;;4993902;28;20242;-74
2022/11/23 09:03:45;;;;;;;19.07;10.20;;;1.10;99.90;;;;;;4992910;28;20216;-73
2022/11/23 09:06:12;;;;;;;18.27;10.83;;;1.10;99.90;;;;;;4996894;28;20214;-75
2022/11/23 09:08:39;;;;;;;17.83;9.63;;;1.10;99.90;;;;;;4991880;28;20208;-73
2022/11/23 09:11:07;;;;;;;20.23;10.57;;;1.00;99.90;;;;;;4993253;28;20220;-71
2022/11/23 09:13:36;;;;;;;19.50;10.30;;;1.00;99.90;;;;;;4997656;28;20211;-76
2022/11/23 09:16:04;;;;;;;20.57;10.20;;;1.00;99.90;;;;;;5006068;28;20219;-70
2022/11/23 09:18:35;;;;;;;18.50;10.57;;;1.00;99.90;;;;;;4998503;28;20259;-73
2022/11/23 09:21:03;;;;;;;17.90;10.70;;;1.00;99.90;;;;;;4993930;28;20258;-73
2022/11/23 09:23:30;;;;;;;21.73;9.97;;;1.00;99.90;;;;;;4996669;28;20235;-74
2022/11/23 09:25:58;;;;;;;20.47;10.50;;;0.90;99.90;;;;;;5002217;28;20657;-78
2022/11/23 09:28:26;;;;;;;19.30;10.00;;;0.90;99.90;;;;;;5000730;28;20200;-72
2022/11/23 09:30:53;;;;;;;16.90;9.53;;;0.90;99.90;;;;;;4999786;28;20472;-72
2022/11/23 09:33:20;;;;;;;19.50;10.20;;;0.90;99.90;;;;;;4995851;28;20223;-73
2022/11/23 09:35:55;;;;;;;14.07;9.03;;;0.90;99.90;;;;;;4998985;28;20204;-74
2022/11/23 09:38:22;;;;;;;17.23;9.87;;;0.90;99.90;;;;;;5041197;23;20283;-71
2022/11/23 09:40:55;;;;;;;17.50;9.47;;;0.90;99.90;;;;;;5013903;28;20225;-76
2022/11/23 09:43:37;;;;;;;17.87;9.77;;;0.90;99.90;;;;;;5016527;28;20203;-72
2022/11/23 09:46:14;;;;;;;16.17;9.47;;;1.00;99.90;;;;;;5015509;28;20195;-74
2022/11/23 09:49:01;;;;;;;16.57;9.83;;;1.00;99.90;;;;;;5016353;28;20214;-73
2022/11/23 09:51:29;;;;;;;15.70;9.33;;;1.00;99.90;;;;;;5015336;28;20243;-68
2022/11/23 09:54:00;;;;;;;18.13;9.70;;;1.10;99.90;;;;;;5009722;28;20687;-70
2022/11/23 09:56:30;;;;;;;16.57;10.03;;;1.10;99.90;;;;;;5011497;28;20257;-69
2022/11/23 09:58:59;;;;;;;16.53;10.03;;;1.10;99.90;;;;;;5012268;28;20577;-72
2022/11/23 10:01:26;;;;;;;19.97;10.47;;;1.20;99.90;;;;;;5012448;28;20217;-73
2022/11/23 10:03:53;;;;;;;16.53;9.93;;;1.20;99.90;;;;;;5011709;28;20215;-74
2022/11/23 10:06:24;;;;;;;15.60;8.70;;;1.10;99.90;;;;;;5007822;28;20215;-74
2022/11/23 10:09:18;;;;;;;17.57;10.23;;;1.20;99.90;;;;;;5010979;28;20282;-72
2022/11/23 10:12:04;;;;;;;17.90;10.63;;;1.20;99.90;;;;;;5006479;28;20211;-72
2022/11/23 10:14:53;;;;;;;18.87;10.23;;;1.20;99.90;;;;;;5011532;28;20469;-74
2022/11/23 10:17:29;;;;;;;19.07;10.47;;;1.20;99.90;;;;;;5011589;28;20238;-72
2022/11/23 10:20:10;;;;;;;17.90;11.00;;;1.10;99.90;;;;;;5014185;28;20210;-72
2022/11/23 10:22:42;;;;;;;18.63;10.57;;;1.10;99.90;;;;;;5010943;28;20199;-69
2022/11/23 10:25:16;;;;;;;15.97;10.37;;;1.10;99.90;;;;;;5008450;28;20262;-71
2022/11/23 10:27:45;;;;;;;18.50;10.77;;;1.10;99.90;;;;;;5016564;28;20183;-71
2022/11/23 10:30:14;;;;;;;15.97;10.77;;;1.10;99.90;;;;;;5020207;28;20302;-75
2022/11/23 10:32:46;;;;;;;14.83;8.83;;;1.20;99.90;;;;;;5020974;28;20223;-76
2022/11/23 10:35:15;;;;;;;18.03;9.20;;;1.20;99.90;;;;;;5028035;28;20275;-76
2022/11/23 10:37:41;;;;;;;15.50;9.37;;;1.10;99.90;;;;;;5018721;28;20219;-75
2022/11/23 10:40:17;;;;;;;18.07;9.70;;;1.20;99.90;;;;;;5021206;28;20247;-75
2022/11/23 10:42:48;;;;;;;18.20;9.93;;;1.20;99.90;;;;;;5019773;28;20222;-77
2022/11/23 10:45:24;;;;;;;17.70;10.07;;;1.20;99.90;;;;;;5016105;28;20214;-74
2022/11/23 10:47:53;;;;;;;18.47;9.47;;;1.20;99.90;;;;;;5018718;28;20203;-72
2022/11/23 10:50:23;;;;;;;18.70;10.43;;;1.20;99.90;;;;;;5023582;28;20237;-74
2022/11/23 10:52:52;;;;;;;19.50;10.40;;;1.10;99.90;;;;;;5025306;28;20207;-76
2022/11/23 10:55:26;;;;;;;18.80;10.27;;;1.10;99.90;;;;;;5024279;28;20658;-71
2022/11/23 10:57:53;;;;;;;19.43;10.93;;;1.10;99.90;;;;;;5008587;28;20539;-73
2022/11/23 11:00:22;;;;;;;20.70;11.17;;;1.10;99.90;;;;;;5019911;28;20229;-74
2022/11/23 11:02:50;;;;;;;18.67;10.40;;;1.10;99.90;;;;;;5023626;28;20262;-74
2022/11/23 11:05:33;;;;;;;18.37;11.33;;;1.10;99.90;;;;;;5022065;28;20211;-74
2022/11/23 11:08:02;;;;;;;19.13;10.63;;;1.10;99.90;;;;;;5021388;28;20210;-75
2022/11/23 11:10:40;;;;;;;17.90;11.43;;;1.10;99.90;;;;;;5030835;28;20286;-75
2022/11/23 11:13:28;;;;;;;18.33;10.57;;;1.10;99.90;;;;;;5031447;28;20219;-73
2022/11/23 11:15:58;;;;;;;19.17;10.20;;;1.10;99.90;;;;;;5028861;28;20199;-72
2022/11/23 11:18:28;;;;;;;17.90;10.20;;;1.10;99.90;;;;;;5027136;28;20234;-74
2022/11/23 11:20:58;;;;;;;19.13;9.73;;;1.10;99.90;;;;;;5017689;28;20199;-74
2022/11/23 11:23:25;;;;;;;15.13;10.43;;;1.10;99.90;;;;;;5021355;28;20203;-74
2022/11/23 11:26:06;;;;;;;18.77;10.73;;;1.10;99.90;;;;;;5021506;28;20219;-73
2022/11/23 11:28:36;;;;;;;19.60;11.07;;;1.10;99.90;;;;;;5022616;28;20199;-74
2022/11/23 11:31:23;;;;;;;19.33;10.53;;;1.20;99.90;;;;;;5019570;28;20200;-73
2022/11/23 11:33:55;;;;;;;21.27;11.90;;;1.20;99.90;;;;;;5020253;28;20580;-75
2022/11/23 11:36:27;;;;;;;19.20;11.77;;;1.20;99.90;;;;;;5019401;28;20657;-74
2022/11/23 11:38:56;;;;;;;21.07;11.90;;;1.20;99.90;;;;;;5015192;28;20716;-74
2022/11/23 11:41:26;;;;;;;20.83;11.83;;;1.20;99.90;;;;;;5012603;28;20215;-73
2022/11/23 11:43:58;;;;;;;19.97;11.63;;;1.20;99.90;;;;;;5023947;28;20606;-74
2022/11/23 11:46:30;;;;;;;18.23;11.53;;;1.20;99.90;;;;;;5013682;28;20203;-73
2022/11/23 11:49:04;;;;;;;16.83;10.53;;;1.30;99.90;;;;;;5017961;28;20199;-74
2022/11/23 11:51:36;;;;;;;18.80;11.20;;;1.40;99.90;;;;;;5019372;28;20195;-73
2022/11/23 11:54:11;;;;;;;17.47;10.13;;;1.40;99.90;;;;;;5024236;28;20215;-74
2022/11/23 11:56:43;;;;;;;22.50;10.37;;;1.40;99.90;;;;;;5022693;28;20297;-74
2022/11/23 11:59:16;;;;;;;15.90;11.17;;;1.40;99.90;;;;;;5022932;28;20212;-74
2022/11/23 12:01:51;;;;;;;17.23;10.93;;;1.40;99.90;;;;;;5022934;28;20259;-73
2022/11/23 12:04:23;;;;;;;16.70;11.43;;;1.40;99.90;;;;;;5022602;28;20210;-73
2022/11/23 12:06:56;;;;;;;17.20;11.40;;;1.40;99.90;;;;;;5020355;28;20203;-73
2022/11/23 12:09:27;;;;;;;17.93;11.40;;;1.30;99.90;;;;;;5013840;28;20708;-73
2022/11/23 12:11:55;;;;;;;18.83;11.70;;;1.30;99.90;;;;;;5014406;28;20615;-72
2022/11/23 12:14:22;;;;;;;22.73;12.37;;;1.30;99.90;;;;;;5012922;28;20210;-69
2022/11/23 12:16:58;;;;;;;19.20;11.83;;;1.30;99.90;;;;;;5008744;28;20211;-68
2022/11/23 12:19:32;;;;;;;22.50;12.27;;;1.30;99.90;;;;;;5013836;28;20224;-69
2022/11/23 12:22:21;;;;;;;22.63;12.53;;;1.30;99.90;;;;;;5016101;28;20203;-68
2022/11/23 12:25:13;;;;;;;20.37;12.00;;;1.30;99.90;;;;;;5006478;28;20207;-68
2022/11/23 12:27:55;;;;;;;21.70;13.33;;;1.20;99.90;;;;;;5021483;28;20219;-72
2022/11/23 12:30:27;;;;;;;20.27;12.97;;;1.20;99.90;;;;;;5005022;28;20233;-69
2022/11/23 12:33:23;;;;;;;22.90;13.30;;;1.20;99.90;;;;;;5008130;28;20203;-69
2022/11/23 12:36:13;;;;;;;17.80;11.57;;;1.20;99.90;;;;;;5005561;28;20608;-69
2022/11/23 12:38:50;;;;;;;18.90;12.17;;;1.30;99.90;;;;;;5011324;28;20239;-67
2022/11/23 12:41:38;;;;;;;19.53;11.60;;;1.30;99.90;;;;;;5011457;28;20210;-70
2022/11/23 12:44:38;;;;;;;19.53;12.67;;;1.40;99.90;;;;;;5007508;28;20208;-67
2022/11/23 12:47:13;;;;;;;20.33;12.00;;;1.40;99.90;;;;;;5009282;28;20207;-70
2022/11/23 12:49:46;;;;;;;21.83;12.67;;;1.40;99.90;;;;;;5011622;28;20206;-73